Abraham, West Virginia
Current Conditions -  °F | °C
As of 3:51 AM on Saturday 20 Dec 2014 (Local Time) from KBKW Reporting Station
Clear Clear  
Wind Chill: 25°   Ceiling: Unl
Heat Index: 25°   Visibility: 10mi
Dew Point: 21°   Wind: 0mph
Humidity: 85%   Direction: NA
Pressure: 30.14"   Gusts: NA
Location:  37.6906°N, 81.1704°W
Report Text: KBKW 200851Z AUTO 00000KT 10SM CLR M04/M06 A3014 RMK AO2 SLP239 T10391061 55002
Loading
Personal Weather Stations






























Interactive Weather Map New forecast layout! Learn more

10-Day Weather Forecast

Advertisements
Track Severe Weather on mobile